sensor_id;sensor_type;location;lat;lon;timestamp;P1;P2;P0
48893;PMS5003;34710;35.798;139.446;2022-09-13T00:01:16;18;14;
48893;PMS5003;34710;35.798;139.446;2022-09-13T00:03:46;15;12;
48893;PMS5003;34710;35.798;139.446;2022-09-13T00:06:16;15;14;
48893;PMS5003;34710;35.798;139.446;2022-09-13T00:08:47;14;14;
48893;PMS5003;34710;35.798;139.446;2022-09-13T00:11:17;18;12;
48893;PMS5003;34710;35.798;139.446;2022-09-13T00:13:48;15;11;
48893;PMS5003;34710;35.798;139.446;2022-09-13T00:16:19;17;15;
48893;PMS5003;34710;35.798;139.446;2022-09-13T00:18:50;22;13;
48893;PMS5003;34710;35.798;139.446;2022-09-13T00:21:21;12;12;
48893;PMS5003;34710;35.798;139.446;2022-09-13T00:23:51;12;12;
48893;PMS5003;34710;35.798;139.446;2022-09-13T00:26:23;14;13;
48893;PMS5003;34710;35.798;139.446;2022-09-13T00:28:54;20;14;
48893;PMS5003;34710;35.798;139.446;2022-09-13T00:31:25;12;12;
48893;PMS5003;34710;35.798;139.446;2022-09-13T00:33:56;14;14;
48893;PMS5003;34710;35.798;139.446;2022-09-13T00:36:26;12;11;
48893;PMS5003;34710;35.798;139.446;2022-09-13T00:38:56;13;12;
48893;PMS5003;34710;35.798;139.446;2022-09-13T00:41:26;11;11;
48893;PMS5003;34710;35.798;139.446;2022-09-13T00:43:56;20;15;
48893;PMS5003;34710;35.798;139.446;2022-09-13T00:46:30;19;14;
48893;PMS5003;34710;35.798;139.446;2022-09-13T00:49:08;14;14;
48893;PMS5003;34710;35.798;139.446;2022-09-13T00:51:41;16;16;
48893;PMS5003;34710;35.798;139.446;2022-09-13T00:54:17;13;13;
48893;PMS5003;34710;35.798;139.446;2022-09-13T00:56:49;14;14;
48893;PMS5003;34710;35.798;139.446;2022-09-13T00:59:22;15;14;
48893;PMS5003;34710;35.798;139.446;2022-09-13T01:01:57;25;12;
48893;PMS5003;34710;35.798;139.446;2022-09-13T01:04:26;16;16;
48893;PMS5003;34710;35.798;139.446;2022-09-13T01:07:00;12;11;
48893;PMS5003;34710;35.798;139.446;2022-09-13T01:09:32;16;15;
48893;PMS5003;34710;35.798;139.446;2022-09-13T01:12:07;14;13;
48893;PMS5003;34710;35.798;139.446;2022-09-13T01:14:44;20;14;
48893;PMS5003;34710;35.798;139.446;2022-09-13T01:17:14;12;12;
48893;PMS5003;34710;35.798;139.446;2022-09-13T01:19:44;17;16;
48893;PMS5003;34710;35.798;139.446;2022-09-13T01:22:22;15;14;
48893;PMS5003;34710;35.798;139.446;2022-09-13T01:23:05;15;14;
48893;PMS5003;34710;35.798;139.446;2022-09-13T01:26:12;18;14;
48893;PMS5003;34710;35.798;139.446;2022-09-13T01:29:08;16;14;
48893;PMS5003;34710;35.798;139.446;2022-09-13T01:30:22;17;14;
48893;PMS5003;34710;35.798;139.446;2022-09-13T01:33:01;17;15;
48893;PMS5003;34710;35.798;139.446;2022-09-13T01:35:42;19;17;
48893;PMS5003;34710;35.798;139.446;2022-09-13T01:38:29;19;15;
48893;PMS5003;34710;35.798;139.446;2022-09-13T01:41:07;17;14;
48893;PMS5003;34710;35.798;139.446;2022-09-13T01:43:48;27;16;
48893;PMS5003;34710;35.798;139.446;2022-09-13T01:46:24;17;13;
48893;PMS5003;34710;35.798;139.446;2022-09-13T01:48:58;16;13;
48893;PMS5003;34710;35.798;139.446;2022-09-13T01:51:34;17;15;
48893;PMS5003;34710;35.798;139.446;2022-09-13T01:54:11;14;14;
48893;PMS5003;34710;35.798;139.446;2022-09-13T01:56:48;13;13;
48893;PMS5003;34710;35.798;139.446;2022-09-13T01:59:26;27;13;
48893;PMS5003;34710;35.798;139.446;2022-09-13T02:02:04;17;14;
48893;PMS5003;34710;35.798;139.446;2022-09-13T02:04:41;15;15;
48893;PMS5003;34710;35.798;139.446;2022-09-13T02:07:16;18;15;
48893;PMS5003;34710;35.798;139.446;2022-09-13T02:09:50;14;14;
48893;PMS5003;34710;35.798;139.446;2022-09-13T02:12:23;14;12;
48893;PMS5003;34710;35.798;139.446;2022-09-13T02:14:57;16;12;
48893;PMS5003;34710;35.798;139.446;2022-09-13T02:17:35;14;12;
48893;PMS5003;34710;35.798;139.446;2022-09-13T02:20:11;14;12;
48893;PMS5003;34710;35.798;139.446;2022-09-13T02:22:44;11;11;
48893;PMS5003;34710;35.798;139.446;2022-09-13T02:25:18;7;7;
48893;PMS5003;34710;35.798;139.446;2022-09-13T02:27:52;11;10;
48893;PMS5003;34710;35.798;139.446;2022-09-13T02:30:26;12;8;
48893;PMS5003;34710;35.798;139.446;2022-09-13T02:32:58;12;10;
48893;PMS5003;34710;35.798;139.446;2022-09-13T02:35:32;11;8;
48893;PMS5003;34710;35.798;139.446;2022-09-13T02:38:05;9;9;
48893;PMS5003;34710;35.798;139.446;2022-09-13T02:40:41;7;7;
48893;PMS5003;34710;35.798;139.446;2022-09-13T02:43:15;6;6;
48893;PMS5003;34710;35.798;139.446;2022-09-13T02:45:50;6;6;
48893;PMS5003;34710;35.798;139.446;2022-09-13T02:48:27;5;5;
48893;PMS5003;34710;35.798;139.446;2022-09-13T02:51:03;11;11;
48893;PMS5003;34710;35.798;139.446;2022-09-13T02:53:44;11;10;
48893;PMS5003;34710;35.798;139.446;2022-09-13T02:56:20;12;11;
48893;PMS5003;34710;35.798;139.446;2022-09-13T02:58:59;13;12;
48893;PMS5003;34710;35.798;139.446;2022-09-13T03:01:32;16;12;
48893;PMS5003;34710;35.798;139.446;2022-09-13T03:04:05;16;13;
48893;PMS5003;34710;35.798;139.446;2022-09-13T03:06:36;14;11;
48893;PMS5003;34710;35.798;139.446;2022-09-13T03:09:07;14;12;
48893;PMS5003;34710;35.798;139.446;2022-09-13T03:11:40;14;13;
48893;PMS5003;34710;35.798;139.446;2022-09-13T03:14:28;15;15;
48893;PMS5003;34710;35.798;139.446;2022-09-13T03:17:09;15;14;
48893;PMS5003;34710;35.798;139.446;2022-09-13T03:19:52;13;13;
48893;PMS5003;34710;35.798;139.446;2022-09-13T03:22:35;16;13;
48893;PMS5003;34710;35.798;139.446;2022-09-13T03:25:28;14;13;
48893;PMS5003;34710;35.798;139.446;2022-09-13T03:28:07;15;11;
48893;PMS5003;34710;35.798;139.446;2022-09-13T03:30:47;13;13;
48893;PMS5003;34710;35.798;139.446;2022-09-13T03:33:23;15;13;
48893;PMS5003;34710;35.798;139.446;2022-09-13T03:36:03;15;14;
48893;PMS5003;34710;35.798;139.446;2022-09-13T03:38:40;13;13;
48893;PMS5003;34710;35.798;139.446;2022-09-13T03:41:15;17;14;
48893;PMS5003;34710;35.798;139.446;2022-09-13T03:43:49;12;12;
48893;PMS5003;34710;35.798;139.446;2022-09-13T03:46:25;13;13;
48893;PMS5003;34710;35.798;139.446;2022-09-13T03:48:57;13;13;
48893;PMS5003;34710;35.798;139.446;2022-09-13T03:51:32;11;11;
48893;PMS5003;34710;35.798;139.446;2022-09-13T03:54:03;9;9;
48893;PMS5003;34710;35.798;139.446;2022-09-13T03:56:36;10;10;
48893;PMS5003;34710;35.798;139.446;2022-09-13T03:59:06;11;10;
48893;PMS5003;34710;35.798;139.446;2022-09-13T04:01:36;9;9;
48893;PMS5003;34710;35.798;139.446;2022-09-13T04:04:05;15;12;
48893;PMS5003;34710;35.798;139.446;2022-09-13T04:06:34;12;11;
48893;PMS5003;34710;35.798;139.446;2022-09-13T04:09:04;13;12;
48893;PMS5003;34710;35.798;139.446;2022-09-13T04:11:33;12;12;
48893;PMS5003;34710;35.798;139.446;2022-09-13T04:14:02;15;13;
48893;PMS5003;34710;35.798;139.446;2022-09-13T04:16:31;11;11;
48893;PMS5003;34710;35.798;139.446;2022-09-13T04:19:01;12;11;
48893;PMS5003;34710;35.798;139.446;2022-09-13T04:21:30;12;10;
48893;PMS5003;34710;35.798;139.446;2022-09-13T04:23:59;10;8;
48893;PMS5003;34710;35.798;139.446;2022-09-13T04:26:29;12;9;
48893;PMS5003;34710;35.798;139.446;2022-09-13T04:28:58;10;9;
48893;PMS5003;34710;35.798;139.446;2022-09-13T04:31:28;9;9;
48893;PMS5003;34710;35.798;139.446;2022-09-13T04:33:57;10;8;
48893;PMS5003;34710;35.798;139.446;2022-09-13T04:36:26;10;9;
48893;PMS5003;34710;35.798;139.446;2022-09-13T04:38:55;10;10;
48893;PMS5003;34710;35.798;139.446;2022-09-13T04:41:25;9;9;
48893;PMS5003;34710;35.798;139.446;2022-09-13T04:43:54;8;8;
48893;PMS5003;34710;35.798;139.446;2022-09-13T04:46:25;12;12;
48893;PMS5003;34710;35.798;139.446;2022-09-13T04:48:54;8;8;
48893;PMS5003;34710;35.798;139.446;2022-09-13T04:51:23;12;11;
48893;PMS5003;34710;35.798;139.446;2022-09-13T04:53:53;12;10;
48893;PMS5003;34710;35.798;139.446;2022-09-13T04:56:23;16;15;
48893;PMS5003;34710;35.798;139.446;2022-09-13T04:58:53;10;9;
48893;PMS5003;34710;35.798;139.446;2022-09-13T05:01:23;10;10;
48893;PMS5003;34710;35.798;139.446;2022-09-13T05:03:53;11;11;
48893;PMS5003;34710;35.798;139.446;2022-09-13T05:06:22;13;11;
48893;PMS5003;34710;35.798;139.446;2022-09-13T05:08:52;11;9;
48893;PMS5003;34710;35.798;139.446;2022-09-13T05:11:22;10;10;
48893;PMS5003;34710;35.798;139.446;2022-09-13T05:13:53;9;9;
48893;PMS5003;34710;35.798;139.446;2022-09-13T05:16:24;11;10;
48893;PMS5003;34710;35.798;139.446;2022-09-13T05:18:56;8;7;
48893;PMS5003;34710;35.798;139.446;2022-09-13T05:21:25;11;11;
48893;PMS5003;34710;35.798;139.446;2022-09-13T05:23:56;10;10;
48893;PMS5003;34710;35.798;139.446;2022-09-13T05:26:26;8;8;
48893;PMS5003;34710;35.798;139.446;2022-09-13T05:28:56;7;7;
48893;PMS5003;34710;35.798;139.446;2022-09-13T05:31:28;12;9;
48893;PMS5003;34710;35.798;139.446;2022-09-13T05:34:00;8;8;
48893;PMS5003;34710;35.798;139.446;2022-09-13T05:36:30;11;10;
48893;PMS5003;34710;35.798;139.446;2022-09-13T05:39:00;11;11;
48893;PMS5003;34710;35.798;139.446;2022-09-13T05:41:30;8;8;
48893;PMS5003;34710;35.798;139.446;2022-09-13T05:44:00;9;8;
48893;PMS5003;34710;35.798;139.446;2022-09-13T05:46:29;12;8;
48893;PMS5003;34710;35.798;139.446;2022-09-13T05:48:58;9;7;
48893;PMS5003;34710;35.798;139.446;2022-09-13T05:51:28;7;7;
48893;PMS5003;34710;35.798;139.446;2022-09-13T05:53:57;8;8;
48893;PMS5003;34710;35.798;139.446;2022-09-13T05:56:27;10;10;
48893;PMS5003;34710;35.798;139.446;2022-09-13T05:58:57;11;9;
48893;PMS5003;34710;35.798;139.446;2022-09-13T06:01:27;10;8;
48893;PMS5003;34710;35.798;139.446;2022-09-13T06:03:58;7;6;
48893;PMS5003;34710;35.798;139.446;2022-09-13T06:06:27;9;9;
48893;PMS5003;34710;35.798;139.446;2022-09-13T06:08:57;19;11;
48893;PMS5003;34710;35.798;139.446;2022-09-13T06:11:26;11;10;
48893;PMS5003;34710;35.798;139.446;2022-09-13T06:13:56;10;9;
48893;PMS5003;34710;35.798;139.446;2022-09-13T06:16:25;7;7;
48893;PMS5003;34710;35.798;139.446;2022-09-13T06:18:56;8;8;
48893;PMS5003;34710;35.798;139.446;2022-09-13T06:21:25;13;9;
48893;PMS5003;34710;35.798;139.446;2022-09-13T06:23:54;7;7;
48893;PMS5003;34710;35.798;139.446;2022-09-13T06:26:25;10;9;
48893;PMS5003;34710;35.798;139.446;2022-09-13T06:28:55;9;8;
48893;PMS5003;34710;35.798;139.446;2022-09-13T06:31:26;8;8;
48893;PMS5003;34710;35.798;139.446;2022-09-13T06:33:58;9;9;
48893;PMS5003;34710;35.798;139.446;2022-09-13T06:36:28;11;9;
48893;PMS5003;34710;35.798;139.446;2022-09-13T06:38:57;6;6;
48893;PMS5003;34710;35.798;139.446;2022-09-13T06:41:26;8;8;
48893;PMS5003;34710;35.798;139.446;2022-09-13T06:43:57;9;8;
48893;PMS5003;34710;35.798;139.446;2022-09-13T06:46:28;11;10;
48893;PMS5003;34710;35.798;139.446;2022-09-13T06:48:59;8;8;
48893;PMS5003;34710;35.798;139.446;2022-09-13T06:51:31;13;10;
48893;PMS5003;34710;35.798;139.446;2022-09-13T06:54:01;10;9;
48893;PMS5003;34710;35.798;139.446;2022-09-13T06:56:31;9;9;
48893;PMS5003;34710;35.798;139.446;2022-09-13T06:59:03;9;8;
48893;PMS5003;34710;35.798;139.446;2022-09-13T07:01:35;13;11;
48893;PMS5003;34710;35.798;139.446;2022-09-13T07:04:06;12;9;
48893;PMS5003;34710;35.798;139.446;2022-09-13T07:06:37;9;9;
48893;PMS5003;34710;35.798;139.446;2022-09-13T07:09:10;20;11;
48893;PMS5003;34710;35.798;139.446;2022-09-13T07:11:42;13;11;
48893;PMS5003;34710;35.798;139.446;2022-09-13T07:14:13;11;11;
48893;PMS5003;34710;35.798;139.446;2022-09-13T07:16:43;13;11;
48893;PMS5003;34710;35.798;139.446;2022-09-13T07:19:14;12;11;
48893;PMS5003;34710;35.798;139.446;2022-09-13T07:21:45;10;10;
48893;PMS5003;34710;35.798;139.446;2022-09-13T07:24:15;10;10;
48893;PMS5003;34710;35.798;139.446;2022-09-13T07:26:46;12;11;
48893;PMS5003;34710;35.798;139.446;2022-09-13T07:29:16;11;11;
48893;PMS5003;34710;35.798;139.446;2022-09-13T07:31:48;10;10;
48893;PMS5003;34710;35.798;139.446;2022-09-13T07:34:19;12;11;
48893;PMS5003;34710;35.798;139.446;2022-09-13T07:36:49;16;16;
48893;PMS5003;34710;35.798;139.446;2022-09-13T07:39:19;11;11;
48893;PMS5003;34710;35.798;139.446;2022-09-13T07:41:49;12;12;
48893;PMS5003;34710;35.798;139.446;2022-09-13T07:44:18;14;11;
48893;PMS5003;34710;35.798;139.446;2022-09-13T07:46:48;12;10;
48893;PMS5003;34710;35.798;139.446;2022-09-13T07:49:17;15;13;
48893;PMS5003;34710;35.798;139.446;2022-09-13T07:51:46;14;12;
48893;PMS5003;34710;35.798;139.446;2022-09-13T07:54:16;14;12;
48893;PMS5003;34710;35.798;139.446;2022-09-13T07:56:45;13;11;
48893;PMS5003;34710;35.798;139.446;2022-09-13T07:59:15;21;12;
48893;PMS5003;34710;35.798;139.446;2022-09-13T08:01:45;29;16;
48893;PMS5003;34710;35.798;139.446;2022-09-13T08:04:16;15;14;
48893;PMS5003;34710;35.798;139.446;2022-09-13T08:06:46;14;13;
48893;PMS5003;34710;35.798;139.446;2022-09-13T08:09:15;16;16;
48893;PMS5003;34710;35.798;139.446;2022-09-13T08:11:45;15;15;
48893;PMS5003;34710;35.798;139.446;2022-09-13T08:14:16;16;12;
48893;PMS5003;34710;35.798;139.446;2022-09-13T08:16:48;17;16;
48893;PMS5003;34710;35.798;139.446;2022-09-13T08:19:17;21;18;
48893;PMS5003;34710;35.798;139.446;2022-09-13T08:21:46;21;17;
48893;PMS5003;34710;35.798;139.446;2022-09-13T08:24:16;21;16;
48893;PMS5003;34710;35.798;139.446;2022-09-13T08:26:46;15;14;
48893;PMS5003;34710;35.798;139.446;2022-09-13T08:29:15;18;17;
48893;PMS5003;34710;35.798;139.446;2022-09-13T08:31:45;22;17;
48893;PMS5003;34710;35.798;139.446;2022-09-13T08:34:15;33;17;
48893;PMS5003;34710;35.798;139.446;2022-09-13T08:36:45;20;19;
48893;PMS5003;34710;35.798;139.446;2022-09-13T08:39:14;29;21;
48893;PMS5003;34710;35.798;139.446;2022-09-13T08:41:48;23;17;
48893;PMS5003;34710;35.798;139.446;2022-09-13T08:44:28;21;17;
48893;PMS5003;34710;35.798;139.446;2022-09-13T08:47:03;31;20;
48893;PMS5003;34710;35.798;139.446;2022-09-13T08:49:48;21;18;
48893;PMS5003;34710;35.798;139.446;2022-09-13T08:52:26;17;15;
48893;PMS5003;34710;35.798;139.446;2022-09-13T08:55:00;19;18;
48893;PMS5003;34710;35.798;139.446;2022-09-13T08:57:47;17;16;
48893;PMS5003;34710;35.798;139.446;2022-09-13T09:00:20;16;16;
48893;PMS5003;34710;35.798;139.446;2022-09-13T09:02:59;16;16;
48893;PMS5003;34710;35.798;139.446;2022-09-13T09:05:39;18;17;
48893;PMS5003;34710;35.798;139.446;2022-09-13T09:08:14;18;15;
48893;PMS5003;34710;35.798;139.446;2022-09-13T09:10:54;16;15;
48893;PMS5003;34710;35.798;139.446;2022-09-13T09:13:26;13;13;
48893;PMS5003;34710;35.798;139.446;2022-09-13T09:15:59;14;14;
48893;PMS5003;34710;35.798;139.446;2022-09-13T09:18:33;16;14;
48893;PMS5003;34710;35.798;139.446;2022-09-13T09:21:09;16;16;
48893;PMS5003;34710;35.798;139.446;2022-09-13T09:23:44;15;12;
48893;PMS5003;34710;35.798;139.446;2022-09-13T09:26:17;15;12;
48893;PMS5003;34710;35.798;139.446;2022-09-13T09:28:48;13;11;
48893;PMS5003;34710;35.798;139.446;2022-09-13T09:31:23;11;11;
48893;PMS5003;34710;35.798;139.446;2022-09-13T09:34:07;12;12;
48893;PMS5003;34710;35.798;139.446;2022-09-13T09:36:43;12;11;
48893;PMS5003;34710;35.798;139.446;2022-09-13T09:39:19;10;9;
48893;PMS5003;34710;35.798;139.446;2022-09-13T09:41:51;19;13;
48893;PMS5003;34710;35.798;139.446;2022-09-13T09:44:25;12;11;
48893;PMS5003;34710;35.798;139.446;2022-09-13T09:46:58;11;10;
48893;PMS5003;34710;35.798;139.446;2022-09-13T09:49:31;11;10;
48893;PMS5003;34710;35.798;139.446;2022-09-13T09:52:06;12;10;
48893;PMS5003;34710;35.798;139.446;2022-09-13T09:54:38;10;10;
48893;PMS5003;34710;35.798;139.446;2022-09-13T09:57:07;11;10;
48893;PMS5003;34710;35.798;139.446;2022-09-13T09:59:37;9;9;
48893;PMS5003;34710;35.798;139.446;2022-09-13T10:02:12;11;11;
48893;PMS5003;34710;35.798;139.446;2022-09-13T10:04:53;10;7;
48893;PMS5003;34710;35.798;139.446;2022-09-13T10:07:26;8;8;
48893;PMS5003;34710;35.798;139.446;2022-09-13T10:10:01;9;8;
48893;PMS5003;34710;35.798;139.446;2022-09-13T10:12:32;8;8;
48893;PMS5003;34710;35.798;139.446;2022-09-13T10:15:05;9;9;
48893;PMS5003;34710;35.798;139.446;2022-09-13T10:17:42;11;9;
48893;PMS5003;34710;35.798;139.446;2022-09-13T10:20:26;10;10;
48893;PMS5003;34710;35.798;139.446;2022-09-13T10:23:15;11;9;
48893;PMS5003;34710;35.798;139.446;2022-09-13T10:26:02;7;6;
48893;PMS5003;34710;35.798;139.446;2022-09-13T10:28:34;6;6;
48893;PMS5003;34710;35.798;139.446;2022-09-13T10:31:11;9;8;
48893;PMS5003;34710;35.798;139.446;2022-09-13T10:33:55;9;9;
48893;PMS5003;34710;35.798;139.446;2022-09-13T10:36:27;10;9;
48893;PMS5003;34710;35.798;139.446;2022-09-13T10:39:00;12;9;
48893;PMS5003;34710;35.798;139.446;2022-09-13T10:41:31;9;9;
48893;PMS5003;34710;35.798;139.446;2022-09-13T10:44:05;10;8;
48893;PMS5003;34710;35.798;139.446;2022-09-13T10:46:52;8;8;
48893;PMS5003;34710;35.798;139.446;2022-09-13T10:49:58;11;10;
48893;PMS5003;34710;35.798;139.446;2022-09-13T10:52:44;10;10;
48893;PMS5003;34710;35.798;139.446;2022-09-13T10:55:32;34;21;
48893;PMS5003;34710;35.798;139.446;2022-09-13T10:58:18;10;8;
48893;PMS5003;34710;35.798;139.446;2022-09-13T11:00:59;10;10;
48893;PMS5003;34710;35.798;139.446;2022-09-13T11:04:15;9;9;
48893;PMS5003;34710;35.798;139.446;2022-09-13T11:07:00;10;10;
48893;PMS5003;34710;35.798;139.446;2022-09-13T11:09:42;11;11;
48893;PMS5003;34710;35.798;139.446;2022-09-13T11:12:21;9;8;
48893;PMS5003;34710;35.798;139.446;2022-09-13T11:15:01;12;12;
48893;PMS5003;34710;35.798;139.446;2022-09-13T11:17:42;13;10;
48893;PMS5003;34710;35.798;139.446;2022-09-13T11:20:31;10;8;
48893;PMS5003;34710;35.798;139.446;2022-09-13T11:23:20;13;11;
48893;PMS5003;34710;35.798;139.446;2022-09-13T11:26:08;10;9;
48893;PMS5003;34710;35.798;139.446;2022-09-13T11:28:51;14;12;
48893;PMS5003;34710;35.798;139.446;2022-09-13T11:31:31;12;11;
48893;PMS5003;34710;35.798;139.446;2022-09-13T11:34:12;9;9;
48893;PMS5003;34710;35.798;139.446;2022-09-13T11:36:59;13;10;
48893;PMS5003;34710;35.798;139.446;2022-09-13T11:39:40;11;9;
48893;PMS5003;34710;35.798;139.446;2022-09-13T11:42:22;11;10;
48893;PMS5003;34710;35.798;139.446;2022-09-13T11:45:08;14;11;
48893;PMS5003;34710;35.798;139.446;2022-09-13T11:47:51;12;12;
48893;PMS5003;34710;35.798;139.446;2022-09-13T11:50:38;11;9;
48893;PMS5003;34710;35.798;139.446;2022-09-13T11:53:21;11;11;
48893;PMS5003;34710;35.798;139.446;2022-09-13T11:56:06;10;10;
48893;PMS5003;34710;35.798;139.446;2022-09-13T11:58:43;9;9;
48893;PMS5003;34710;35.798;139.446;2022-09-13T12:01:18;15;12;
48893;PMS5003;34710;35.798;139.446;2022-09-13T12:03:54;12;9;
48893;PMS5003;34710;35.798;139.446;2022-09-13T12:06:29;12;11;
48893;PMS5003;34710;35.798;139.446;2022-09-13T12:09:03;9;9;
48893;PMS5003;34710;35.798;139.446;2022-09-13T12:11:39;12;12;
48893;PMS5003;34710;35.798;139.446;2022-09-13T12:14:13;15;12;
48893;PMS5003;34710;35.798;139.446;2022-09-13T12:16:46;19;13;
48893;PMS5003;34710;35.798;139.446;2022-09-13T12:19:19;11;11;
48893;PMS5003;34710;35.798;139.446;2022-09-13T12:21:52;15;13;
48893;PMS5003;34710;35.798;139.446;2022-09-13T12:24:33;13;12;
48893;PMS5003;34710;35.798;139.446;2022-09-13T12:27:10;15;14;
48893;PMS5003;34710;35.798;139.446;2022-09-13T12:29:49;15;14;
48893;PMS5003;34710;35.798;139.446;2022-09-13T12:32:20;16;14;
48893;PMS5003;34710;35.798;139.446;2022-09-13T12:34:52;11;11;
48893;PMS5003;34710;35.798;139.446;2022-09-13T12:37:30;15;12;
48893;PMS5003;34710;35.798;139.446;2022-09-13T12:40:35;14;12;
48893;PMS5003;34710;35.798;139.446;2022-09-13T12:43:25;13;13;
48893;PMS5003;34710;35.798;139.446;2022-09-13T12:46:19;14;10;
48893;PMS5003;34710;35.798;139.446;2022-09-13T12:49:06;17;12;
48893;PMS5003;34710;35.798;139.446;2022-09-13T12:51:52;12;12;
48893;PMS5003;34710;35.798;139.446;2022-09-13T12:54:40;14;11;
48893;PMS5003;34710;35.798;139.446;2022-09-13T12:57:23;22;14;
48893;PMS5003;34710;35.798;139.446;2022-09-13T13:00:11;19;17;
48893;PMS5003;34710;35.798;139.446;2022-09-13T13:02:50;14;14;
48893;PMS5003;34710;35.798;139.446;2022-09-13T13:05:28;14;11;
48893;PMS5003;34710;35.798;139.446;2022-09-13T13:08:01;13;13;
48893;PMS5003;34710;35.798;139.446;2022-09-13T13:10:34;13;13;
48893;PMS5003;34710;35.798;139.446;2022-09-13T13:13:09;13;12;
48893;PMS5003;34710;35.798;139.446;2022-09-13T13:15:58;14;14;
48893;PMS5003;34710;35.798;139.446;2022-09-13T13:18:42;17;14;
48893;PMS5003;34710;35.798;139.446;2022-09-13T13:21:22;13;10;
48893;PMS5003;34710;35.798;139.446;2022-09-13T13:24:45;19;15;
48893;PMS5003;34710;35.798;139.446;2022-09-13T13:27:47;13;12;
48893;PMS5003;34710;35.798;139.446;2022-09-13T13:30:50;15;12;
48893;PMS5003;34710;35.798;139.446;2022-09-13T13:33:21;15;12;
48893;PMS5003;34710;35.798;139.446;2022-09-13T13:35:53;17;14;
48893;PMS5003;34710;35.798;139.446;2022-09-13T13:38:55;18;14;
48893;PMS5003;34710;35.798;139.446;2022-09-13T13:41:45;16;15;
48893;PMS5003;34710;35.798;139.446;2022-09-13T13:45:15;17;15;
48893;PMS5003;34710;35.798;139.446;2022-09-13T13:47:54;16;15;
48893;PMS5003;34710;35.798;139.446;2022-09-13T13:51:16;16;14;
48893;PMS5003;34710;35.798;139.446;2022-09-13T13:53:49;20;13;
48893;PMS5003;34710;35.798;139.446;2022-09-13T13:56:24;24;13;
48893;PMS5003;34710;35.798;139.446;2022-09-13T13:58:59;18;14;
48893;PMS5003;34710;35.798;139.446;2022-09-13T14:01:33;16;14;
48893;PMS5003;34710;35.798;139.446;2022-09-13T14:04:24;22;17;
48893;PMS5003;34710;35.798;139.446;2022-09-13T14:07:13;16;14;
48893;PMS5003;34710;35.798;139.446;2022-09-13T14:09:57;16;13;
48893;PMS5003;34710;35.798;139.446;2022-09-13T14:12:40;14;14;
48893;PMS5003;34710;35.798;139.446;2022-09-13T14:15:25;20;13;
48893;PMS5003;34710;35.798;139.446;2022-09-13T14:18:16;17;14;
48893;PMS5003;34710;35.798;139.446;2022-09-13T14:20:57;20;14;
48893;PMS5003;34710;35.798;139.446;2022-09-13T14:23:28;18;14;
48893;PMS5003;34710;35.798;139.446;2022-09-13T14:25:59;13;12;
48893;PMS5003;34710;35.798;139.446;2022-09-13T14:28:31;24;16;
48893;PMS5003;34710;35.798;139.446;2022-09-13T14:31:01;22;16;
48893;PMS5003;34710;35.798;139.446;2022-09-13T14:33:31;18;17;
48893;PMS5003;34710;35.798;139.446;2022-09-13T14:36:04;34;20;
48893;PMS5003;34710;35.798;139.446;2022-09-13T14:38:34;19;19;
48893;PMS5003;34710;35.798;139.446;2022-09-13T14:41:12;21;19;
48893;PMS5003;34710;35.798;139.446;2022-09-13T14:43:44;20;18;
48893;PMS5003;34710;35.798;139.446;2022-09-13T14:46:15;21;20;
48893;PMS5003;34710;35.798;139.446;2022-09-13T14:48:49;21;21;
48893;PMS5003;34710;35.798;139.446;2022-09-13T14:51:23;23;20;
48893;PMS5003;34710;35.798;139.446;2022-09-13T14:53:55;20;19;
48893;PMS5003;34710;35.798;139.446;2022-09-13T14:56:35;28;24;
48893;PMS5003;34710;35.798;139.446;2022-09-13T14:59:12;24;20;
48893;PMS5003;34710;35.798;139.446;2022-09-13T15:01:45;22;22;
48893;PMS5003;34710;35.798;139.446;2022-09-13T15:04:15;24;23;
48893;PMS5003;34710;35.798;139.446;2022-09-13T15:06:46;26;22;
48893;PMS5003;34710;35.798;139.446;2022-09-13T15:09:33;25;23;
48893;PMS5003;34710;35.798;139.446;2022-09-13T15:12:03;22;21;
48893;PMS5003;34710;35.798;139.446;2022-09-13T15:14:48;20;20;
48893;PMS5003;34710;35.798;139.446;2022-09-13T15:17:56;21;21;
48893;PMS5003;34710;35.798;139.446;2022-09-13T15:20:27;19;18;
48893;PMS5003;34710;35.798;139.446;2022-09-13T15:23:13;31;22;
48893;PMS5003;34710;35.798;139.446;2022-09-13T15:25:52;26;24;
48893;PMS5003;34710;35.798;139.446;2022-09-13T15:28:24;37;23;
48893;PMS5003;34710;35.798;139.446;2022-09-13T15:30:55;24;24;
48893;PMS5003;34710;35.798;139.446;2022-09-13T15:33:27;32;23;
48893;PMS5003;34710;35.798;139.446;2022-09-13T15:36:24;22;22;
48893;PMS5003;34710;35.798;139.446;2022-09-13T15:38:57;28;21;
48893;PMS5003;34710;35.798;139.446;2022-09-13T15:41:29;26;22;
48893;PMS5003;34710;35.798;139.446;2022-09-13T15:44:00;25;21;
48893;PMS5003;34710;35.798;139.446;2022-09-13T15:46:33;20;20;
48893;PMS5003;34710;35.798;139.446;2022-09-13T15:49:11;25;21;
48893;PMS5003;34710;35.798;139.446;2022-09-13T15:51:43;27;22;
48893;PMS5003;34710;35.798;139.446;2022-09-13T15:54:14;26;22;
48893;PMS5003;34710;35.798;139.446;2022-09-13T15:56:45;26;24;
48893;PMS5003;34710;35.798;139.446;2022-09-13T15:59:16;24;22;
48893;PMS5003;34710;35.798;139.446;2022-09-13T16:01:47;25;22;
48893;PMS5003;34710;35.798;139.446;2022-09-13T16:04:18;22;22;
48893;PMS5003;34710;35.798;139.446;2022-09-13T16:06:47;34;23;
48893;PMS5003;34710;35.798;139.446;2022-09-13T16:09:17;23;22;
48893;PMS5003;34710;35.798;139.446;2022-09-13T16:11:49;25;23;
48893;PMS5003;34710;35.798;139.446;2022-09-13T16:14:19;25;24;
48893;PMS5003;34710;35.798;139.446;2022-09-13T16:16:48;29;24;
48893;PMS5003;34710;35.798;139.446;2022-09-13T16:19:18;26;24;
48893;PMS5003;34710;35.798;139.446;2022-09-13T16:21:50;20;20;
48893;PMS5003;34710;35.798;139.446;2022-09-13T16:24:20;21;20;
48893;PMS5003;34710;35.798;139.446;2022-09-13T16:26:50;21;21;
48893;PMS5003;34710;35.798;139.446;2022-09-13T16:29:19;34;23;
48893;PMS5003;34710;35.798;139.446;2022-09-13T16:31:49;23;20;
48893;PMS5003;34710;35.798;139.446;2022-09-13T16:34:18;37;24;
48893;PMS5003;34710;35.798;139.446;2022-09-13T16:36:48;30;23;
48893;PMS5003;34710;35.798;139.446;2022-09-13T16:39:18;25;22;
48893;PMS5003;34710;35.798;139.446;2022-09-13T16:41:48;24;22;